Tahitian Princess — ZCDD8 — position and weather

sailwx.info

Track history (hours):
 
Tides and Currents Weather Stations Pressure Air Temp Water Temp Dewpoint Dewpoint Depression Visibility Wind Speed Wind Dir Waves Ship Positions

Tahitian Princess

Operator: P & O Irish Sea Ltd

Last reported at 2017-Sep-20 21:00 UTC. Time now 2017-Sep-21 01:30 UTC.
Position N 53°29' W 003°05'.

Length 167 m; draft 5.8 m.

Type: Passenger vessel. MMSI: 310362000.

Date/timePositionNaut miles runAvg speedWind from/ knotsBaromVisibWave heightAir tempDewpointWater temp
2017-Sep-20 21:00N 53°29' W 003°05'816.3
2017-Sep-20 20:30N 53°31' W 003°19'1019.7
2017-Sep-20 20:00N 53°31' W 003°35'1019.4
2017-Sep-20 19:30N 53°32' W 003°51'7718.5
2017-Sep-20 15:19N 53°21' W 005°59'516.5
2017-Sep-20 15:00N 53°21' W 006°08'3 1.6
2017-Sep-20 13:10N 53°21' W 006°13'0 0.0
2017-Sep-20 13:00N 53°21' W 006°13'0 0.0
2017-Sep-20 12:30N 53°21' W 006°13'0 0.0
2017-Sep-20 12:00N 53°21' W 006°13'0 0.0
2017-Sep-20 11:30N 53°21' W 006°13'0 0.0
2017-Sep-20 11:00N 53°21' W 006°13'0 0.0
2017-Sep-20 10:30N 53°21' W 006°13'4 7.4
2017-Sep-20 09:59N 53°20' W 006°07'918.0
2017-Sep-20 09:30N 53°23' W 005°52'5118.4
2017-Sep-20 06:44N 53°36' W 004°30'1718.9
2017-Sep-20 05:50N 53°35' W 004°01'720.2
2017-Sep-20 05:30N 53°34' W 003°50'1121.0
2017-Sep-20 05:00N 53°33' W 003°33'1020.5
2017-Sep-20 04:30N 53°31' W 003°16'816.3
2017-Sep-20 04:00N 53°28' W 003°03'2 3.1
2017-Sep-20 03:30N 53°27' W 003°01'0 0.7
2017-Sep-20 03:00N 53°27' W 003°01'0 0.4
2017-Sep-20 02:30N 53°27' W 003°01'0 0.0
2017-Sep-20 02:00N 53°27' W 003°01'0 0.0
2017-Sep-20 01:30N 53°27' W 003°01'0 0.0
2017-Sep-20 01:00N 53°27' W 003°01'0 0.0
2017-Sep-20 00:30N 53°27' W 003°01'0 0.0
2017-Sep-20 00:00N 53°27' W 003°01'0 0.0
2017-Sep-19 23:30N 53°27' W 003°01'0 0.0
2017-Sep-19 23:00N 53°27' W 003°01'0 0.0
2017-Sep-19 22:30N 53°27' W 003°01'0 0.4
2017-Sep-19 22:00N 53°27' W 003°01'0 0.5
2017-Sep-19 21:30N 53°27' W 003°01'0 0.0
2017-Sep-19 21:00N 53°27' W 003°01'0 0.0
2017-Sep-19 20:30N 53°27' W 003°01'0 0.0
2017-Sep-19 20:00N 53°27' W 003°01'0 0.0
2017-Sep-19 19:30N 53°27' W 003°01'0 0.0
2017-Sep-19 19:00N 53°27' W 003°01'0 0.0
2017-Sep-19 18:30N 53°27' W 003°01'0 0.0
2017-Sep-19 18:00N 53°27' W 003°01'0 0.0
2017-Sep-19 17:30N 53°27' W 003°01'0 0.0
2017-Sep-19 17:00N 53°27' W 003°01'0 0.0
2017-Sep-19 16:30N 53°27' W 003°01'0 0.0
2017-Sep-19 16:00N 53°27' W 003°01'0 0.0
2017-Sep-19 15:30N 53°27' W 003°01'0 0.0
2017-Sep-19 15:00N 53°27' W 003°01'0 0.0
2017-Sep-19 14:30N 53°27' W 003°01'0 0.0
2017-Sep-19 14:00N 53°27' W 003°01'0 0.0
2017-Sep-19 13:30N 53°27' W 003°01'0 0.3
2017-Sep-19 13:00N 53°27' W 003°01'0 0.4
2017-Sep-19 12:30N 53°27' W 003°01'0 0.0
2017-Sep-19 12:00N 53°27' W 003°01'0 0.0
2017-Sep-19 11:30N 53°27' W 003°01'0 0.4
2017-Sep-19 11:00N 53°27' W 003°01'0 0.6
2017-Sep-19 10:30N 53°27' W 003°01'0 0.0
2017-Sep-19 10:00N 53°27' W 003°01'0 0.0
2017-Sep-19 09:30N 53°27' W 003°01'0 0.0
2017-Sep-19 09:00N 53°27' W 003°01'0 0.0
2017-Sep-19 08:30N 53°27' W 003°01'0 0.0
2017-Sep-19 08:00N 53°27' W 003°01'0 0.0
2017-Sep-19 07:30N 53°27' W 003°01'0 0.0
2017-Sep-19 07:00N 53°27' W 003°01'0 0.0
2017-Sep-19 06:30N 53°27' W 003°01'0 0.0
2017-Sep-19 06:00N 53°27' W 003°01'0 0.0
2017-Sep-19 05:30N 53°27' W 003°01'0 0.0
2017-Sep-19 05:00N 53°27' W 003°01'0 0.0
2017-Sep-19 04:30N 53°27' W 003°01'0 0.0
2017-Sep-19 04:00N 53°27' W 003°01'0 0.5
2017-Sep-19 03:30N 53°27' W 003°01'510.4
2017-Sep-19 03:00N 53°31' W 003°07'714.6
2017-Sep-19 02:30N 53°31' W 003°19'816.8
2017-Sep-19 02:00N 53°31' W 003°33'816.2
2017-Sep-19 01:30N 53°31' W 003°47'816.2
2017-Sep-19 01:00N 53°33' W 004°01'6217.0
2017-Sep-18 21:22N 53°25' W 005°44'719.0
2017-Sep-18 20:58N 53°22' W 005°55'816.7
2017-Sep-18 20:29N 53°21' W 006°09'3 5.4
2017-Sep-18 20:01N 53°21' W 006°13'0 0.0
2017-Sep-18 19:30N 53°21' W 006°13'0 0.0
2017-Sep-18 18:56N 53°21' W 006°13'0 0.0
2017-Sep-18 18:29N 53°21' W 006°13'0 0.0
2017-Sep-18 17:55N 53°21' W 006°13'0 0.0
2017-Sep-18 17:28N 53°21' W 006°13'0 0.0
2017-Sep-18 16:58N 53°21' W 006°13'0 0.0
2017-Sep-18 16:30N 53°21' W 006°13'0 0.0
2017-Sep-18 15:58N 53°21' W 006°13'0 0.0
2017-Sep-18 15:29N 53°21' W 006°13'0 0.0
2017-Sep-18 15:00N 53°21' W 006°13'0 0.0
2017-Sep-18 14:20N 53°21' W 006°13'0 0.0
2017-Sep-18 13:59N 53°21' W 006°13'0 0.0
2017-Sep-18 13:29N 53°21' W 006°13'0 0.0
2017-Sep-18 13:00N 53°21' W 006°13'0 0.0
2017-Sep-18 12:23N 53°21' W 006°13'0 0.0
2017-Sep-18 11:29N 53°21' W 006°13'0 0.0
2017-Sep-18 11:00N 53°21' W 006°13'0 0.0
2017-Sep-18 09:50N 53°21' W 006°13'0 0.0
2017-Sep-18 09:25N 53°21' W 006°13'0 0.0
2017-Sep-18 09:00N 53°21' W 006°13'0 0.0
2017-Sep-18 08:12N 53°21' W 006°13'0 0.0
2017-Sep-18 08:01N 53°21' W 006°13'0 0.0
2017-Sep-18 07:28N 53°21' W 006°13'0 0.0
2017-Sep-18 06:58N 53°21' W 006°13'0 0.0
2017-Sep-18 06:24N 53°21' W 006°13'0 0.0
2017-Sep-18 06:00N 53°21' W 006°13'0 0.0
2017-Sep-18 04:59N 53°21' W 006°13'0 0.0
2017-Sep-18 04:29N 53°21' W 006°13'1 1.4
2017-Sep-18 03:50N 53°21' W 006°12'412.4
2017-Sep-18 03:30N 53°20' W 006°05'917.2
2017-Sep-18 03:00N 53°23' W 005°51'6616.3
2017-Sep-17 22:59N 53°35' W 004°03'818.0
2017-Sep-17 22:31N 53°35' W 003°49'917.5
2017-Sep-17 22:00N 53°34' W 003°34'919.1
2017-Sep-17 21:30N 53°32' W 003°18'816.1
2017-Sep-17 21:00N 53°30' W 003°05'4 7.0
2017-Sep-17 20:30N 53°27' W 003°01'0 0.8
2017-Sep-17 20:00N 53°27' W 003°01'0 0.2
2017-Sep-17 19:30N 53°27' W 003°01'0 0.0
2017-Sep-17 19:00N 53°27' W 003°01'0 0.0
2017-Sep-17 18:30N 53°27' W 003°01'0 0.0
2017-Sep-17 18:00N 53°27' W 003°01'0 0.0
2017-Sep-17 17:30N 53°27' W 003°01'0 0.0
2017-Sep-17 17:00N 53°27' W 003°01'0 0.0
2017-Sep-17 16:30N 53°27' W 003°01'0 0.0
2017-Sep-17 16:00N 53°27' W 003°01'0 0.8
2017-Sep-17 15:30N 53°27' W 003°01'0 0.4
2017-Sep-17 15:00N 53°27' W 003°01'713.2
2017-Sep-17 14:30N 53°32' W 003°08'916.9
2017-Sep-17 14:00N 53°31' W 003°23'1019.3
2017-Sep-17 13:30N 53°31' W 003°39'1019.2
2017-Sep-17 13:00N 53°32' W 003°55'6617.8
2017-Sep-17 09:18N 53°24' W 005°45'718.5
2017-Sep-17 08:56N 53°22' W 005°55'916.4
2017-Sep-17 08:24N 53°21' W 006°10'2 5.0
2017-Sep-17 08:00N 53°21' W 006°13'0 0.0
2017-Sep-17 07:28N 53°21' W 006°13'0 0.0
2017-Sep-17 06:56N 53°21' W 006°13'0 0.0
2017-Sep-17 06:20N 53°21' W 006°13'0 0.0
2017-Sep-17 06:01N 53°21' W 006°13'0 0.0
2017-Sep-17 05:29N 53°21' W 006°13'0 0.0
2017-Sep-17 04:55N 53°21' W 006°13'0 0.0
2017-Sep-17 04:26N 53°21' W 006°13'0 0.6
2017-Sep-17 03:56N 53°21' W 006°13'410.3
2017-Sep-17 03:30N 53°20' W 006°05'917.1
2017-Sep-17 03:00N 53°24' W 005°52'6716.6
2017-Sep-16 22:59N 53°35' W 004°02'918.9
2017-Sep-16 22:30N 53°34' W 003°47'1019.5
2017-Sep-16 22:00N 53°33' W 003°30'1019.4
2017-Sep-16 21:30N 53°31' W 003°14'816.7
2017-Sep-16 21:00N 53°27' W 003°02'1 1.3
2017-Sep-16 20:30N 53°27' W 003°01'0 0.9
2017-Sep-16 20:00N 53°27' W 003°01'0 0.0
2017-Sep-16 19:31N 53°27' W 003°01'0 0.0
2017-Sep-16 19:00N 53°27' W 003°01'0 0.0
2017-Sep-16 18:30N 53°27' W 003°01'0 0.0
2017-Sep-16 18:00N 53°27' W 003°01'0 0.0
2017-Sep-16 17:30N 53°27' W 003°01'0 0.0
2017-Sep-16 17:00N 53°27' W 003°01'0 0.0
2017-Sep-16 16:30N 53°27' W 003°01'0 0.0
2017-Sep-16 16:00N 53°27' W 003°01'0 0.8
2017-Sep-16 15:30N 53°27' W 003°01'0 0.4
2017-Sep-16 15:00N 53°27' W 003°01'713.0
2017-Sep-16 14:30N 53°32' W 003°09'917.5
2017-Sep-16 14:00N 53°31' W 003°23'1019.9
2017-Sep-16 13:30N 53°31' W 003°40'1019.7
2017-Sep-16 13:00N 53°32' W 003°57'6919.1
2017-Sep-16 09:24N 53°24' W 005°51'819.3
2017-Sep-16 08:59N 53°20' W 006°03'612.7
2017-Sep-16 08:30N 53°21' W 006°13'0 0.1
2017-Sep-16 08:00N 53°21' W 006°13'0 0.0
2017-Sep-16 07:30N 53°21' W 006°13'0 0.0
2017-Sep-16 07:00N 53°21' W 006°13'0 0.0
2017-Sep-16 06:28N 53°21' W 006°13'0 0.0
2017-Sep-16 06:00N 53°21' W 006°13'0 0.0
2017-Sep-16 05:30N 53°21' W 006°13'0 0.0
2017-Sep-16 05:00N 53°21' W 006°13'0 0.0
2017-Sep-16 04:30N 53°21' W 006°13'0 0.2
2017-Sep-16 04:00N 53°21' W 006°13'510.1
2017-Sep-16 03:29N 53°20' W 006°04'817.3
2017-Sep-16 03:00N 53°23' W 005°51'6417.1
2017-Sep-15 23:16N 53°35' W 004°06'519.5
2017-Sep-15 23:00N 53°34' W 003°57'1019.7
2017-Sep-15 22:30N 53°34' W 003°41'1019.7
2017-Sep-15 22:00N 53°33' W 003°24'918.9
2017-Sep-15 21:30N 53°32' W 003°08'612.4
2017-Sep-15 21:00N 53°27' W 003°01'0 0.1
2017-Sep-15 20:30N 53°27' W 003°01'0 0.7
2017-Sep-15 20:00N 53°27' W 003°01'0 0.0
2017-Sep-15 19:30N 53°27' W 003°01'0 0.0
2017-Sep-15 19:00N 53°27' W 003°01'0 0.0
2017-Sep-15 18:30N 53°27' W 003°01'0 0.0
2017-Sep-15 18:00N 53°27' W 003°01'0 0.0
2017-Sep-15 17:30N 53°27' W 003°01'0 0.0
2017-Sep-15 17:00N 53°27' W 003°01'0 0.0
2017-Sep-15 16:30N 53°27' W 003°01'0 0.2
2017-Sep-15 16:00N 53°27' W 003°01'0 0.7
2017-Sep-15 15:30N 53°27' W 003°01'1 2.4
2017-Sep-15 15:00N 53°28' W 003°03'611.1
2017-Sep-15 14:30N 53°32' W 003°09'918.0
2017-Sep-15 14:00N 53°31' W 003°24'918.8
2017-Sep-15 13:30N 53°31' W 003°40'918.4
2017-Sep-15 13:00N 53°32' W 003°55'6717.3
2017-Sep-15 09:10N 53°23' W 005°46'818.3
2017-Sep-15 08:43N 53°21' W 005°60'417.2
2017-Sep-15 08:30N 53°20' W 006°05'5 9.3
2017-Sep-15 08:00N 53°21' W 006°13'0 0.0
2017-Sep-15 07:30N 53°21' W 006°13'0 0.0
2017-Sep-15 06:59N 53°21' W 006°13'0 0.0
2017-Sep-15 06:24N 53°21' W 006°13'0 0.0
2017-Sep-15 06:00N 53°21' W 006°13'0 0.0
2017-Sep-15 05:27N 53°21' W 006°13'0 0.0
2017-Sep-15 05:00N 53°21' W 006°13'0 0.0
2017-Sep-15 04:29N 53°21' W 006°13'0 0.2
2017-Sep-15 03:58N 53°21' W 006°13'5 9.6
2017-Sep-15 03:30N 53°20' W 006°05'816.5
2017-Sep-15 03:00N 53°23' W 005°53'6517.0
2017-Sep-14 23:10N 53°35' W 004°05'318.8
2017-Sep-14 23:00N 53°35' W 003°59'919.0
2017-Sep-14 22:30N 53°34' W 003°44'919.0
2017-Sep-14 22:00N 53°33' W 003°28'918.5
2017-Sep-14 21:30N 53°31' W 003°13'816.2
2017-Sep-14 21:00N 53°27' W 003°01'0 0.6
2017-Sep-14 20:30N 53°27' W 003°01'0 0.8
2017-Sep-14 20:00N 53°27' W 003°01'0 0.0
2017-Sep-14 19:30N 53°27' W 003°01'0 0.0
2017-Sep-14 19:01N 53°27' W 003°01'0 0.0
2017-Sep-14 18:30N 53°27' W 003°01'0 0.0
2017-Sep-14 18:00N 53°27' W 003°01'0 0.0
2017-Sep-14 17:30N 53°27' W 003°01'0 0.0
2017-Sep-14 17:01N 53°27' W 003°01'0 0.0
2017-Sep-14 16:30N 53°27' W 003°01'0 0.8
2017-Sep-14 16:00N 53°27' W 003°01'0 0.4
2017-Sep-14 15:30N 53°27' W 003°01'2 4.9
2017-Sep-14 15:00N 53°28' W 003°04'5 9.5
2017-Sep-14 14:30N 53°32' W 003°10'1018.9
2017-Sep-14 14:00N 53°31' W 003°26'1019.3
2017-Sep-14 13:31N 53°31' W 003°42'1019.2
2017-Sep-14 13:00N 53°33' W 003°58'6419.7
2017-Sep-14 09:44N 53°25' W 005°45'719.9
2017-Sep-14 09:23N 53°23' W 005°56'717.5
2017-Sep-14 09:00N 53°20' W 006°07'4 7.3
2017-Sep-14 08:30N 53°21' W 006°13'0 0.0
2017-Sep-14 07:57N 53°21' W 006°13'0 0.0
2017-Sep-14 07:30N 53°21' W 006°13'0 0.0
2017-Sep-14 07:00N 53°21' W 006°13'0 0.0
2017-Sep-14 06:30N 53°21' W 006°13'0 0.0
2017-Sep-14 05:58N 53°21' W 006°13'0 0.0
2017-Sep-14 05:29N 53°21' W 006°13'0 0.0
2017-Sep-14 05:00N 53°21' W 006°13'0 0.2
2017-Sep-14 04:27N 53°21' W 006°13'4 9.0
2017-Sep-14 03:59N 53°20' W 006°06'1018.7
2017-Sep-14 03:27N 53°24' W 005°50'6518.5
2017-Sep-13 23:57N 53°35' W 004°03'919.6
2017-Sep-13 23:30N 53°34' W 003°48'1020.0
2017-Sep-13 23:00N 53°33' W 003°32'1019.5
2017-Sep-13 22:30N 53°31' W 003°16'815.6
2017-Sep-13 22:00N 53°28' W 003°03'2 3.6
2017-Sep-13 21:30N 53°27' W 003°01'0 0.8
2017-Sep-13 21:00N 53°27' W 003°01'0 0.2
2017-Sep-13 20:30N 53°27' W 003°01'0 0.0
2017-Sep-13 20:00N 53°27' W 003°01'0 0.0
2017-Sep-13 19:30N 53°27' W 003°01'0 0.0
2017-Sep-13 19:00N 53°27' W 003°01'0 0.0
2017-Sep-13 18:31N 53°27' W 003°01'0 0.0
2017-Sep-13 18:00N 53°27' W 003°01'0 0.0
2017-Sep-13 17:30N 53°27' W 003°01'0 0.0
2017-Sep-13 17:00N 53°27' W 003°01'0 0.0
2017-Sep-13 16:31N 53°27' W 003°01'0 0.0
2017-Sep-13 15:59N 53°27' W 003°01'0 0.1
2017-Sep-13 15:31N 53°27' W 003°01'0 0.9
2017-Sep-13 15:00N 53°27' W 003°01'3 7.0
2017-Sep-13 14:30N 53°29' W 003°05'816.4
2017-Sep-13 14:00N 53°31' W 003°19'917.9
2017-Sep-13 13:30N 53°30' W 003°34'1019.7
2017-Sep-13 13:00N 53°32' W 003°50'7220.7
2017-Sep-13 09:32N 53°23' W 005°50'720.6
2017-Sep-13 09:11N 53°21' W 006°01'316.8
2017-Sep-13 09:00N 53°20' W 006°06'4 7.9
2017-Sep-13 08:30N 53°21' W 006°13'0 0.0
2017-Sep-13 08:00N 53°21' W 006°13'0 0.0
2017-Sep-13 07:17N 53°21' W 006°13'0 0.0
2017-Sep-13 07:00N 53°21' W 006°13'0 0.0
2017-Sep-13 06:22N 53°21' W 006°13'0 0.0
2017-Sep-13 05:59N 53°21' W 006°13'0 0.0
2017-Sep-13 05:29N 53°21' W 006°13'0 0.0
2017-Sep-13 05:00N 53°21' W 006°13'0 1.0
2017-Sep-13 04:29N 53°21' W 006°12'612.4
2017-Sep-13 04:00N 53°21' W 006°02'7217.6
2017-Sep-12 23:53N 53°36' W 004°03'718.2
2017-Sep-12 23:30N 53°35' W 003°52'918.5
2017-Sep-12 23:00N 53°34' W 003°36'918.8
2017-Sep-12 22:30N 53°31' W 003°21'917.1
2017-Sep-12 22:00N 53°31' W 003°06'510.2
2017-Sep-12 21:30N 53°27' W 003°01'0 0.1
2017-Sep-12 21:00N 53°27' W 003°01'0 0.8
2017-Sep-12 20:30N 53°27' W 003°01'0 0.0
2017-Sep-12 20:00N 53°27' W 003°01'0 0.0
2017-Sep-12 19:30N 53°27' W 003°01'0 0.0
2017-Sep-12 19:00N 53°27' W 003°01'0 0.0
2017-Sep-12 18:30N 53°27' W 003°01'0 0.0
2017-Sep-12 18:00N 53°27' W 003°01'0 0.0
2017-Sep-12 17:30N 53°27' W 003°01'0 0.0
2017-Sep-12 17:00N 53°27' W 003°01'0 0.0
2017-Sep-12 16:30N 53°27' W 003°01'0 0.9
2017-Sep-12 16:00N 53°27' W 003°01'0 0.3
2017-Sep-12 15:30N 53°27' W 003°01'4 8.5
2017-Sep-12 15:00N 53°30' W 003°06'816.8
2017-Sep-12 14:30N 53°31' W 003°20'3 5.2
2017-Sep-12 14:00N 53°31' W 003°24'1019.2
2017-Sep-12 13:30N 53°31' W 003°40'1019.7
2017-Sep-12 13:00N 53°32' W 003°57'6819.2
2017-Sep-12 09:27N 53°23' W 005°51'818.5
2017-Sep-12 09:00N 53°20' W 006°04'610.5
2017-Sep-12 08:28N 53°21' W 006°13'0 0.3
2017-Sep-12 08:00N 53°21' W 006°13'0 0.0
2017-Sep-12 07:30N 53°21' W 006°13'0 0.0
2017-Sep-12 07:00N 53°21' W 006°13'0 0.0
2017-Sep-12 06:29N 53°21' W 006°13'0 0.0
2017-Sep-12 06:00N 53°21' W 006°13'0 0.0
2017-Sep-12 05:30N 53°21' W 006°13'0 0.0
2017-Sep-12 05:00N 53°21' W 006°13'0 0.0
2017-Sep-12 04:30N 53°21' W 006°13'1 2.0
2017-Sep-12 04:00N 53°21' W 006°11'815.9
2017-Sep-12 03:29N 53°22' W 005°58'7018.3
2017-Sep-11 23:39N 53°35' W 004°02'317.8
2017-Sep-11 23:28N 53°35' W 003°57'818.0
2017-Sep-11 23:00N 53°34' W 003°43'918.4
2017-Sep-11 22:30N 53°33' W 003°27'816.9
2017-Sep-11 22:00N 53°31' W 003°13'714.1
2017-Sep-11 21:30N 53°28' W 003°03'1 2.7
2017-Sep-11 21:00N 53°27' W 003°01'0 0.7
2017-Sep-11 20:30N 53°27' W 003°01'0 0.0
2017-Sep-11 20:00N 53°27' W 003°01'0 0.0
2017-Sep-11 19:30N 53°27' W 003°01'0 0.0
2017-Sep-11 19:00N 53°27' W 003°01'0 0.0
2017-Sep-11 18:30N 53°27' W 003°01'0 0.0
2017-Sep-11 18:00N 53°27' W 003°01'0 0.0
2017-Sep-11 17:30N 53°27' W 003°01'0 0.0
2017-Sep-11 17:00N 53°27' W 003°01'0 0.0
2017-Sep-11 16:30N 53°27' W 003°01'0 0.0
2017-Sep-11 16:00N 53°27' W 003°01'0 0.0
2017-Sep-11 15:30N 53°27' W 003°01'0 0.0
2017-Sep-11 15:00N 53°27' W 003°01'0 0.0
2017-Sep-11 14:30N 53°27' W 003°01'0 0.0
2017-Sep-11 14:00N 53°27' W 003°01'0 0.0
2017-Sep-11 13:30N 53°27' W 003°01'0 0.0
2017-Sep-11 13:00N 53°27' W 003°01'0 0.0
2017-Sep-11 12:30N 53°27' W 003°01'0 0.0
2017-Sep-11 12:00N 53°27' W 003°01'0 0.0
2017-Sep-11 11:30N 53°27' W 003°01'0 0.0
2017-Sep-11 11:00N 53°27' W 003°01'0 0.0
2017-Sep-11 10:30N 53°27' W 003°01'0 0.0
2017-Sep-11 10:00N 53°27' W 003°01'0 0.0
2017-Sep-11 09:30N 53°27' W 003°01'0 0.0
2017-Sep-11 09:00N 53°27' W 003°01'0 0.0
2017-Sep-11 08:30N 53°27' W 003°01'0 0.0
2017-Sep-11 08:00N 53°27' W 003°01'0 0.0
2017-Sep-11 07:30N 53°27' W 003°01'0 0.0
2017-Sep-11 07:00N 53°27' W 003°01'0 0.0
2017-Sep-11 06:30N 53°27' W 003°01'0 0.0
2017-Sep-11 06:00N 53°27' W 003°01'0 0.0
2017-Sep-11 05:30N 53°27' W 003°01'0 0.0
2017-Sep-11 05:00N 53°27' W 003°01'0 0.6
2017-Sep-11 04:30N 53°27' W 003°01'0 0.4
2017-Sep-11 04:00N 53°27' W 003°01'612.1
2017-Sep-11 03:30N 53°32' W 003°08'815.5
2017-Sep-11 03:00N 53°31' W 003°21'815.3
2017-Sep-11 02:30N 53°31' W 003°34'815.5
2017-Sep-11 02:00N 53°31' W 003°47'815.4
2017-Sep-11 01:30N 53°29' W 003°59'612.8
2017-Sep-11 01:00N 53°30' W 004°10'6016.9
2017-Sep-10 21:27N 53°24' W 005°50'818.3
2017-Sep-10 21:00N 53°20' W 006°03'  
Track history (hours):
 
Tides and Currents Weather Stations Pressure Air Temp Water Temp Dewpoint Dewpoint Depression Visibility Wind Speed Wind Dir Waves Ship Positions

Tahitian Princess

Operator: P & O Irish Sea Ltd

Last reported at 2017-Sep-20 21:00 UTC. Time now 2017-Sep-21 01:30 UTC.
Position N 53°29' W 003°05'.

Length 167 m; draft 5.8 m.

Type: Passenger vessel. MMSI: 310362000.

Date/timePositionNaut miles runAvg speedWind from/ knotsBaromVisibWave heightAir tempDewpointWater temp
2017-Sep-20 21:00N 53°29' W 003°05'816.3
2017-Sep-20 20:30N 53°31' W 003°19'1019.7
2017-Sep-20 20:00N 53°31' W 003°35'1019.4
2017-Sep-20 19:30N 53°32' W 003°51'7718.5
2017-Sep-20 15:19N 53°21' W 005°59'516.5
2017-Sep-20 15:00N 53°21' W 006°08'3 1.6
2017-Sep-20 13:10N 53°21' W 006°13'0 0.0
2017-Sep-20 13:00N 53°21' W 006°13'0 0.0
2017-Sep-20 12:30N 53°21' W 006°13'0 0.0
2017-Sep-20 12:00N 53°21' W 006°13'0 0.0
2017-Sep-20 11:30N 53°21' W 006°13'0 0.0
2017-Sep-20 11:00N 53°21' W 006°13'0 0.0
2017-Sep-20 10:30N 53°21' W 006°13'4 7.4
2017-Sep-20 09:59N 53°20' W 006°07'918.0
2017-Sep-20 09:30N 53°23' W 005°52'5118.4
2017-Sep-20 06:44N 53°36' W 004°30'1718.9
2017-Sep-20 05:50N 53°35' W 004°01'720.2
2017-Sep-20 05:30N 53°34' W 003°50'1121.0
2017-Sep-20 05:00N 53°33' W 003°33'1020.5
2017-Sep-20 04:30N 53°31' W 003°16'816.3
2017-Sep-20 04:00N 53°28' W 003°03'2 3.1
2017-Sep-20 03:30N 53°27' W 003°01'0 0.7
2017-Sep-20 03:00N 53°27' W 003°01'0 0.4
2017-Sep-20 02:30N 53°27' W 003°01'0 0.0
2017-Sep-20 02:00N 53°27' W 003°01'0 0.0
2017-Sep-20 01:30N 53°27' W 003°01'0 0.0
2017-Sep-20 01:00N 53°27' W 003°01'0 0.0
2017-Sep-20 00:30N 53°27' W 003°01'0 0.0
2017-Sep-20 00:00N 53°27' W 003°01'0 0.0
2017-Sep-19 23:30N 53°27' W 003°01'0 0.0
2017-Sep-19 23:00N 53°27' W 003°01'0 0.0
2017-Sep-19 22:30N 53°27' W 003°01'0 0.4
2017-Sep-19 22:00N 53°27' W 003°01'0 0.5
2017-Sep-19 21:30N 53°27' W 003°01'0 0.0
2017-Sep-19 21:00N 53°27' W 003°01'0 0.0
2017-Sep-19 20:30N 53°27' W 003°01'0 0.0
2017-Sep-19 20:00N 53°27' W 003°01'0 0.0
2017-Sep-19 19:30N 53°27' W 003°01'0 0.0
2017-Sep-19 19:00N 53°27' W 003°01'0 0.0
2017-Sep-19 18:30N 53°27' W 003°01'0 0.0
2017-Sep-19 18:00N 53°27' W 003°01'0 0.0
2017-Sep-19 17:30N 53°27' W 003°01'0 0.0
2017-Sep-19 17:00N 53°27' W 003°01'0 0.0
2017-Sep-19 16:30N 53°27' W 003°01'0 0.0
2017-Sep-19 16:00N 53°27' W 003°01'0 0.0
2017-Sep-19 15:30N 53°27' W 003°01'0 0.0
2017-Sep-19 15:00N 53°27' W 003°01'0 0.0
2017-Sep-19 14:30N 53°27' W 003°01'0 0.0
2017-Sep-19 14:00N 53°27' W 003°01'0 0.0
2017-Sep-19 13:30N 53°27' W 003°01'0 0.3
2017-Sep-19 13:00N 53°27' W 003°01'0 0.4
2017-Sep-19 12:30N 53°27' W 003°01'0 0.0
2017-Sep-19 12:00N 53°27' W 003°01'0 0.0
2017-Sep-19 11:30N 53°27' W 003°01'0 0.4
2017-Sep-19 11:00N 53°27' W 003°01'0 0.6
2017-Sep-19 10:30N 53°27' W 003°01'0 0.0
2017-Sep-19 10:00N 53°27' W 003°01'0 0.0
2017-Sep-19 09:30N 53°27' W 003°01'0 0.0
2017-Sep-19 09:00N 53°27' W 003°01'0 0.0
2017-Sep-19 08:30N 53°27' W 003°01'0 0.0
2017-Sep-19 08:00N 53°27' W 003°01'0 0.0
2017-Sep-19 07:30N 53°27' W 003°01'0 0.0
2017-Sep-19 07:00N 53°27' W 003°01'0 0.0
2017-Sep-19 06:30N 53°27' W 003°01'0 0.0
2017-Sep-19 06:00N 53°27' W 003°01'0 0.0
2017-Sep-19 05:30N 53°27' W 003°01'0 0.0
2017-Sep-19 05:00N 53°27' W 003°01'0 0.0
2017-Sep-19 04:30N 53°27' W 003°01'0 0.0
2017-Sep-19 04:00N 53°27' W 003°01'0 0.5
2017-Sep-19 03:30N 53°27' W 003°01'510.4
2017-Sep-19 03:00N 53°31' W 003°07'714.6
2017-Sep-19 02:30N 53°31' W 003°19'816.8
2017-Sep-19 02:00N 53°31' W 003°33'816.2
2017-Sep-19 01:30N 53°31' W 003°47'816.2
2017-Sep-19 01:00N 53°33' W 004°01'6217.0
2017-Sep-18 21:22N 53°25' W 005°44'719.0
2017-Sep-18 20:58N 53°22' W 005°55'816.7
2017-Sep-18 20:29N 53°21' W 006°09'3 5.4
2017-Sep-18 20:01N 53°21' W 006°13'0 0.0
2017-Sep-18 19:30N 53°21' W 006°13'0 0.0
2017-Sep-18 18:56N 53°21' W 006°13'0 0.0
2017-Sep-18 18:29N 53°21' W 006°13'0 0.0
2017-Sep-18 17:55N 53°21' W 006°13'0 0.0
2017-Sep-18 17:28N 53°21' W 006°13'0 0.0
2017-Sep-18 16:58N 53°21' W 006°13'0 0.0
2017-Sep-18 16:30N 53°21' W 006°13'0 0.0
2017-Sep-18 15:58N 53°21' W 006°13'0 0.0
2017-Sep-18 15:29N 53°21' W 006°13'0 0.0
2017-Sep-18 15:00N 53°21' W 006°13'0 0.0
2017-Sep-18 14:20N 53°21' W 006°13'0 0.0
2017-Sep-18 13:59N 53°21' W 006°13'0 0.0
2017-Sep-18 13:29N 53°21' W 006°13'0 0.0
2017-Sep-18 13:00N 53°21' W 006°13'0 0.0
2017-Sep-18 12:23N 53°21' W 006°13'0 0.0
2017-Sep-18 11:29N 53°21' W 006°13'0 0.0
2017-Sep-18 11:00N 53°21' W 006°13'0 0.0
2017-Sep-18 09:50N 53°21' W 006°13'0 0.0
2017-Sep-18 09:25N 53°21' W 006°13'0 0.0
2017-Sep-18 09:00N 53°21' W 006°13'0 0.0
2017-Sep-18 08:12N 53°21' W 006°13'0 0.0
2017-Sep-18 08:01N 53°21' W 006°13'0 0.0
2017-Sep-18 07:28N 53°21' W 006°13'0 0.0
2017-Sep-18 06:58N 53°21' W 006°13'0 0.0
2017-Sep-18 06:24N 53°21' W 006°13'0 0.0
2017-Sep-18 06:00N 53°21' W 006°13'0 0.0
2017-Sep-18 04:59N 53°21' W 006°13'0 0.0
2017-Sep-18 04:29N 53°21' W 006°13'1 1.4
2017-Sep-18 03:50N 53°21' W 006°12'412.4
2017-Sep-18 03:30N 53°20' W 006°05'917.2
2017-Sep-18 03:00N 53°23' W 005°51'6616.3
2017-Sep-17 22:59N 53°35' W 004°03'818.0
2017-Sep-17 22:31N 53°35' W 003°49'917.5
2017-Sep-17 22:00N 53°34' W 003°34'919.1
2017-Sep-17 21:30N 53°32' W 003°18'816.1
2017-Sep-17 21:00N 53°30' W 003°05'4 7.0
2017-Sep-17 20:30N 53°27' W 003°01'0 0.8
2017-Sep-17 20:00N 53°27' W 003°01'0 0.2
2017-Sep-17 19:30N 53°27' W 003°01'0 0.0
2017-Sep-17 19:00N 53°27' W 003°01'0 0.0
2017-Sep-17 18:30N 53°27' W 003°01'0 0.0
2017-Sep-17 18:00N 53°27' W 003°01'0 0.0
2017-Sep-17 17:30N 53°27' W 003°01'0 0.0
2017-Sep-17 17:00N 53°27' W 003°01'0 0.0
2017-Sep-17 16:30N 53°27' W 003°01'0 0.0
2017-Sep-17 16:00N 53°27' W 003°01'0 0.8
2017-Sep-17 15:30N 53°27' W 003°01'0 0.4
2017-Sep-17 15:00N 53°27' W 003°01'713.2
2017-Sep-17 14:30N 53°32' W 003°08'916.9
2017-Sep-17 14:00N 53°31' W 003°23'1019.3
2017-Sep-17 13:30N 53°31' W 003°39'1019.2
2017-Sep-17 13:00N 53°32' W 003°55'6617.8
2017-Sep-17 09:18N 53°24' W 005°45'718.5
2017-Sep-17 08:56N 53°22' W 005°55'916.4
2017-Sep-17 08:24N 53°21' W 006°10'2 5.0
2017-Sep-17 08:00N 53°21' W 006°13'0 0.0
2017-Sep-17 07:28N 53°21' W 006°13'0 0.0
2017-Sep-17 06:56N 53°21' W 006°13'0 0.0
2017-Sep-17 06:20N 53°21' W 006°13'0 0.0
2017-Sep-17 06:01N 53°21' W 006°13'0 0.0
2017-Sep-17 05:29N 53°21' W 006°13'0 0.0
2017-Sep-17 04:55N 53°21' W 006°13'0 0.0
2017-Sep-17 04:26N 53°21' W 006°13'0 0.6
2017-Sep-17 03:56N 53°21' W 006°13'410.3
2017-Sep-17 03:30N 53°20' W 006°05'917.1
2017-Sep-17 03:00N 53°24' W 005°52'6716.6
2017-Sep-16 22:59N 53°35' W 004°02'918.9
2017-Sep-16 22:30N 53°34' W 003°47'1019.5
2017-Sep-16 22:00N 53°33' W 003°30'1019.4
2017-Sep-16 21:30N 53°31' W 003°14'816.7
2017-Sep-16 21:00N 53°27' W 003°02'1 1.3
2017-Sep-16 20:30N 53°27' W 003°01'0 0.9
2017-Sep-16 20:00N 53°27' W 003°01'0 0.0
2017-Sep-16 19:31N 53°27' W 003°01'0 0.0
2017-Sep-16 19:00N 53°27' W 003°01'0 0.0
2017-Sep-16 18:30N 53°27' W 003°01'0 0.0
2017-Sep-16 18:00N 53°27' W 003°01'0 0.0
2017-Sep-16 17:30N 53°27' W 003°01'0 0.0
2017-Sep-16 17:00N 53°27' W 003°01'0 0.0
2017-Sep-16 16:30N 53°27' W 003°01'0 0.0
2017-Sep-16 16:00N 53°27' W 003°01'0 0.8
2017-Sep-16 15:30N 53°27' W 003°01'0 0.4
2017-Sep-16 15:00N 53°27' W 003°01'713.0
2017-Sep-16 14:30N 53°32' W 003°09'917.5
2017-Sep-16 14:00N 53°31' W 003°23'1019.9
2017-Sep-16 13:30N 53°31' W 003°40'1019.7
2017-Sep-16 13:00N 53°32' W 003°57'6919.1
2017-Sep-16 09:24N 53°24' W 005°51'819.3
2017-Sep-16 08:59N 53°20' W 006°03'612.7
2017-Sep-16 08:30N 53°21' W 006°13'0 0.1
2017-Sep-16 08:00N 53°21' W 006°13'0 0.0
2017-Sep-16 07:30N 53°21' W 006°13'0 0.0
2017-Sep-16 07:00N 53°21' W 006°13'0 0.0
2017-Sep-16 06:28N 53°21' W 006°13'0 0.0
2017-Sep-16 06:00N 53°21' W 006°13'0 0.0
2017-Sep-16 05:30N 53°21' W 006°13'0 0.0
2017-Sep-16 05:00N 53°21' W 006°13'0 0.0
2017-Sep-16 04:30N 53°21' W 006°13'0 0.2
2017-Sep-16 04:00N 53°21' W 006°13'510.1
2017-Sep-16 03:29N 53°20' W 006°04'817.3
2017-Sep-16 03:00N 53°23' W 005°51'6417.1
2017-Sep-15 23:16N 53°35' W 004°06'519.5
2017-Sep-15 23:00N 53°34' W 003°57'1019.7
2017-Sep-15 22:30N 53°34' W 003°41'1019.7
2017-Sep-15 22:00N 53°33' W 003°24'918.9
2017-Sep-15 21:30N 53°32' W 003°08'612.4
2017-Sep-15 21:00N 53°27' W 003°01'0 0.1
2017-Sep-15 20:30N 53°27' W 003°01'0 0.7
2017-Sep-15 20:00N 53°27' W 003°01'0 0.0
2017-Sep-15 19:30N 53°27' W 003°01'0 0.0
2017-Sep-15 19:00N 53°27' W 003°01'0 0.0
2017-Sep-15 18:30N 53°27' W 003°01'0 0.0
2017-Sep-15 18:00N 53°27' W 003°01'0 0.0
2017-Sep-15 17:30N 53°27' W 003°01'0 0.0
2017-Sep-15 17:00N 53°27' W 003°01'0 0.0
2017-Sep-15 16:30N 53°27' W 003°01'0 0.2
2017-Sep-15 16:00N 53°27' W 003°01'0 0.7
2017-Sep-15 15:30N 53°27' W 003°01'1 2.4
2017-Sep-15 15:00N 53°28' W 003°03'611.1
2017-Sep-15 14:30N 53°32' W 003°09'918.0
2017-Sep-15 14:00N 53°31' W 003°24'918.8
2017-Sep-15 13:30N 53°31' W 003°40'918.4
2017-Sep-15 13:00N 53°32' W 003°55'6717.3
2017-Sep-15 09:10N 53°23' W 005°46'818.3
2017-Sep-15 08:43N 53°21' W 005°60'417.2
2017-Sep-15 08:30N 53°20' W 006°05'5 9.3
2017-Sep-15 08:00N 53°21' W 006°13'0 0.0
2017-Sep-15 07:30N 53°21' W 006°13'0 0.0
2017-Sep-15 06:59N 53°21' W 006°13'0 0.0
2017-Sep-15 06:24N 53°21' W 006°13'0 0.0
2017-Sep-15 06:00N 53°21' W 006°13'0 0.0
2017-Sep-15 05:27N 53°21' W 006°13'0 0.0
2017-Sep-15 05:00N 53°21' W 006°13'0 0.0
2017-Sep-15 04:29N 53°21' W 006°13'0 0.2
2017-Sep-15 03:58N 53°21' W 006°13'5 9.6
2017-Sep-15 03:30N 53°20' W 006°05'816.5
2017-Sep-15 03:00N 53°23' W 005°53'6517.0
2017-Sep-14 23:10N 53°35' W 004°05'318.8
2017-Sep-14 23:00N 53°35' W 003°59'919.0
2017-Sep-14 22:30N 53°34' W 003°44'919.0
2017-Sep-14 22:00N 53°33' W 003°28'918.5
2017-Sep-14 21:30N 53°31' W 003°13'816.2
2017-Sep-14 21:00N 53°27' W 003°01'0 0.6
2017-Sep-14 20:30N 53°27' W 003°01'0 0.8
2017-Sep-14 20:00N 53°27' W 003°01'0 0.0
2017-Sep-14 19:30N 53°27' W 003°01'0 0.0
2017-Sep-14 19:01N 53°27' W 003°01'0 0.0
2017-Sep-14 18:30N 53°27' W 003°01'0 0.0
2017-Sep-14 18:00N 53°27' W 003°01'0 0.0
2017-Sep-14 17:30N 53°27' W 003°01'0 0.0
2017-Sep-14 17:01N 53°27' W 003°01'0 0.0
2017-Sep-14 16:30N 53°27' W 003°01'0 0.8
2017-Sep-14 16:00N 53°27' W 003°01'0 0.4
2017-Sep-14 15:30N 53°27' W 003°01'2 4.9
2017-Sep-14 15:00N 53°28' W 003°04'5 9.5
2017-Sep-14 14:30N 53°32' W 003°10'1018.9
2017-Sep-14 14:00N 53°31' W 003°26'1019.3
2017-Sep-14 13:31N 53°31' W 003°42'1019.2
2017-Sep-14 13:00N 53°33' W 003°58'6419.7
2017-Sep-14 09:44N 53°25' W 005°45'719.9
2017-Sep-14 09:23N 53°23' W 005°56'717.5
2017-Sep-14 09:00N 53°20' W 006°07'4 7.3
2017-Sep-14 08:30N 53°21' W 006°13'0 0.0
2017-Sep-14 07:57N 53°21' W 006°13'0 0.0
2017-Sep-14 07:30N 53°21' W 006°13'0 0.0
2017-Sep-14 07:00N 53°21' W 006°13'0 0.0
2017-Sep-14 06:30N 53°21' W 006°13'0 0.0
2017-Sep-14 05:58N 53°21' W 006°13'0 0.0
2017-Sep-14 05:29N 53°21' W 006°13'0 0.0
2017-Sep-14 05:00N 53°21' W 006°13'0 0.2
2017-Sep-14 04:27N 53°21' W 006°13'4 9.0
2017-Sep-14 03:59N 53°20' W 006°06'1018.7
2017-Sep-14 03:27N 53°24' W 005°50'6518.5
2017-Sep-13 23:57N 53°35' W 004°03'919.6
2017-Sep-13 23:30N 53°34' W 003°48'1020.0
2017-Sep-13 23:00N 53°33' W 003°32'1019.5
2017-Sep-13 22:30N 53°31' W 003°16'815.6
2017-Sep-13 22:00N 53°28' W 003°03'2 3.6
2017-Sep-13 21:30N 53°27' W 003°01'0 0.8
2017-Sep-13 21:00N 53°27' W 003°01'0 0.2
2017-Sep-13 20:30N 53°27' W 003°01'0 0.0
2017-Sep-13 20:00N 53°27' W 003°01'0 0.0
2017-Sep-13 19:30N 53°27' W 003°01'0 0.0
2017-Sep-13 19:00N 53°27' W 003°01'0 0.0
2017-Sep-13 18:31N 53°27' W 003°01'0 0.0
2017-Sep-13 18:00N 53°27' W 003°01'0 0.0
2017-Sep-13 17:30N 53°27' W 003°01'0 0.0
2017-Sep-13 17:00N 53°27' W 003°01'0 0.0
2017-Sep-13 16:31N 53°27' W 003°01'0 0.0
2017-Sep-13 15:59N 53°27' W 003°01'0 0.1
2017-Sep-13 15:31N 53°27' W 003°01'0 0.9
2017-Sep-13 15:00N 53°27' W 003°01'3 7.0
2017-Sep-13 14:30N 53°29' W 003°05'816.4
2017-Sep-13 14:00N 53°31' W 003°19'917.9
2017-Sep-13 13:30N 53°30' W 003°34'1019.7
2017-Sep-13 13:00N 53°32' W 003°50'7220.7
2017-Sep-13 09:32N 53°23' W 005°50'720.6
2017-Sep-13 09:11N 53°21' W 006°01'316.8
2017-Sep-13 09:00N 53°20' W 006°06'4 7.9
2017-Sep-13 08:30N 53°21' W 006°13'0 0.0
2017-Sep-13 08:00N 53°21' W 006°13'0 0.0
2017-Sep-13 07:17N 53°21' W 006°13'0 0.0
2017-Sep-13 07:00N 53°21' W 006°13'0 0.0
2017-Sep-13 06:22N 53°21' W 006°13'0 0.0
2017-Sep-13 05:59N 53°21' W 006°13'0 0.0
2017-Sep-13 05:29N 53°21' W 006°13'0 0.0
2017-Sep-13 05:00N 53°21' W 006°13'0 1.0
2017-Sep-13 04:29N 53°21' W 006°12'612.4
2017-Sep-13 04:00N 53°21' W 006°02'7217.6
2017-Sep-12 23:53N 53°36' W 004°03'718.2
2017-Sep-12 23:30N 53°35' W 003°52'918.5
2017-Sep-12 23:00N 53°34' W 003°36'918.8
2017-Sep-12 22:30N 53°31' W 003°21'917.1
2017-Sep-12 22:00N 53°31' W 003°06'510.2
2017-Sep-12 21:30N 53°27' W 003°01'0 0.1
2017-Sep-12 21:00N 53°27' W 003°01'0 0.8
2017-Sep-12 20:30N 53°27' W 003°01'0 0.0
2017-Sep-12 20:00N 53°27' W 003°01'0 0.0
2017-Sep-12 19:30N 53°27' W 003°01'0 0.0
2017-Sep-12 19:00N 53°27' W 003°01'0 0.0
2017-Sep-12 18:30N 53°27' W 003°01'0 0.0
2017-Sep-12 18:00N 53°27' W 003°01'0 0.0
2017-Sep-12 17:30N 53°27' W 003°01'0 0.0
2017-Sep-12 17:00N 53°27' W 003°01'0 0.0
2017-Sep-12 16:30N 53°27' W 003°01'0 0.9
2017-Sep-12 16:00N 53°27' W 003°01'0 0.3
2017-Sep-12 15:30N 53°27' W 003°01'4 8.5
2017-Sep-12 15:00N 53°30' W 003°06'816.8
2017-Sep-12 14:30N 53°31' W 003°20'3 5.2
2017-Sep-12 14:00N 53°31' W 003°24'1019.2
2017-Sep-12 13:30N 53°31' W 003°40'1019.7
2017-Sep-12 13:00N 53°32' W 003°57'6819.2
2017-Sep-12 09:27N 53°23' W 005°51'818.5
2017-Sep-12 09:00N 53°20' W 006°04'610.5
2017-Sep-12 08:28N 53°21' W 006°13'0 0.3
2017-Sep-12 08:00N 53°21' W 006°13'0 0.0
2017-Sep-12 07:30N 53°21' W 006°13'0 0.0
2017-Sep-12 07:00N 53°21' W 006°13'0 0.0
2017-Sep-12 06:29N 53°21' W 006°13'0 0.0
2017-Sep-12 06:00N 53°21' W 006°13'0 0.0
2017-Sep-12 05:30N 53°21' W 006°13'0 0.0
2017-Sep-12 05:00N 53°21' W 006°13'0 0.0
2017-Sep-12 04:30N 53°21' W 006°13'1 2.0
2017-Sep-12 04:00N 53°21' W 006°11'815.9
2017-Sep-12 03:29N 53°22' W 005°58'7018.3
2017-Sep-11 23:39N 53°35' W 004°02'317.8
2017-Sep-11 23:28N 53°35' W 003°57'818.0
2017-Sep-11 23:00N 53°34' W 003°43'918.4
2017-Sep-11 22:30N 53°33' W 003°27'816.9
2017-Sep-11 22:00N 53°31' W 003°13'714.1
2017-Sep-11 21:30N 53°28' W 003°03'1 2.7
2017-Sep-11 21:00N 53°27' W 003°01'0 0.7
2017-Sep-11 20:30N 53°27' W 003°01'0 0.0
2017-Sep-11 20:00N 53°27' W 003°01'0 0.0
2017-Sep-11 19:30N 53°27' W 003°01'0 0.0
2017-Sep-11 19:00N 53°27' W 003°01'0 0.0
2017-Sep-11 18:30N 53°27' W 003°01'0 0.0
2017-Sep-11 18:00N 53°27' W 003°01'0 0.0
2017-Sep-11 17:30N 53°27' W 003°01'0 0.0
2017-Sep-11 17:00N 53°27' W 003°01'0 0.0
2017-Sep-11 16:30N 53°27' W 003°01'0 0.0
2017-Sep-11 16:00N 53°27' W 003°01'0 0.0
2017-Sep-11 15:30N 53°27' W 003°01'0 0.0
2017-Sep-11 15:00N 53°27' W 003°01'0 0.0
2017-Sep-11 14:30N 53°27' W 003°01'0 0.0
2017-Sep-11 14:00N 53°27' W 003°01'0 0.0
2017-Sep-11 13:30N 53°27' W 003°01'0 0.0
2017-Sep-11 13:00N 53°27' W 003°01'0 0.0
2017-Sep-11 12:30N 53°27' W 003°01'0 0.0
2017-Sep-11 12:00N 53°27' W 003°01'0 0.0
2017-Sep-11 11:30N 53°27' W 003°01'0 0.0
2017-Sep-11 11:00N 53°27' W 003°01'0 0.0
2017-Sep-11 10:30N 53°27' W 003°01'0 0.0
2017-Sep-11 10:00N 53°27' W 003°01'0 0.0
2017-Sep-11 09:30N 53°27' W 003°01'0 0.0
2017-Sep-11 09:00N 53°27' W 003°01'0 0.0
2017-Sep-11 08:30N 53°27' W 003°01'0 0.0
2017-Sep-11 08:00N 53°27' W 003°01'0 0.0
2017-Sep-11 07:30N 53°27' W 003°01'0 0.0
2017-Sep-11 07:00N 53°27' W 003°01'0 0.0
2017-Sep-11 06:30N 53°27' W 003°01'0 0.0
2017-Sep-11 06:00N 53°27' W 003°01'0 0.0
2017-Sep-11 05:30N 53°27' W 003°01'0 0.0
2017-Sep-11 05:00N 53°27' W 003°01'0 0.6
2017-Sep-11 04:30N 53°27' W 003°01'0 0.4
2017-Sep-11 04:00N 53°27' W 003°01'612.1
2017-Sep-11 03:30N 53°32' W 003°08'815.5
2017-Sep-11 03:00N 53°31' W 003°21'815.3
2017-Sep-11 02:30N 53°31' W 003°34'815.5
2017-Sep-11 02:00N 53°31' W 003°47'815.4
2017-Sep-11 01:30N 53°29' W 003°59'612.8
2017-Sep-11 01:00N 53°30' W 004°10'6016.9
2017-Sep-10 21:27N 53°24' W 005°50'818.3
2017-Sep-10 21:00N 53°20' W 006°03'  

Dump ship's entire track history